Violet Hill, Arkansas
Current Conditions -  °F | °C
As of 2:35 AM on Thursday 29 Jan 2015 (Local Time) from KBVX Reporting Station
Clear Clear  
Wind Chill: 55°   Ceiling: Unl
Heat Index: 55°   Visibility: 10mi
Dew Point: 39°   Wind: 14mph
Humidity: 54%   Direction: 210°SSW
Pressure: 29.95"   Gusts: 21mph
Location:  36.15°N, 91.84°W
Report Text: KBVX 290835Z AUTO 21012G18KT 10SM CLR 13/04 A2995 RMK AO1
Loading
Personal Weather Stations






























Interactive Weather Map New forecast layout! Learn more

10-Day Weather Forecast

Advertisements
Track Severe Weather on mobile